Latest Coastal Weather Observations for Portland Harbour

IDV60701

Issued at 5:41 am EST Wednesday 29 July 2015 (issued every 10 minutes, with the page automatically refreshed every 10 minutes)

About coastal observations | Map of coastal stations | Coastal observations for VIC | Marine services | Other Formats
Station Details ID: 090192 Name: PORTLAND NTC AWS Lat: -38.34 Lon: 141.61 Height: 0.0 m
Data from the previous 72 hours. | See also: Recent months for locations in Victoria
Date/Time
EST
Temp

°C
Wind Pressure Rain
since 9am
mm
Weather Cloud Vis
km
Sea
Height
m
Swell
Dir
 
Speed
knots
Gust
knots
hPa Trend Height
m
Period
s
Dir
29/05:30am 8.2 NNW 10 13 1030.4 - - - - - - - - -
29/05:00am 8.2 NNW 10 14 1030.5 - - - - - - - - -
29/04:30am 8.4 NNW 9 11 1030.8 - - - - - - - - -
29/04:00am 8.1 NW 7 11 1031.1 - - - - - - - - -
29/03:30am 8.1 NW 6 9 1031.3 - - - - - - - - -
29/03:00am 7.9 NW 5 8 1031.3 - - - - - - - - -
29/02:30am 7.9 WNW 8 11 1031.6 - - - - - - - - -
29/02:00am 8.2 NW 8 13 1031.3 - - - - - - - - -
29/01:30am 7.8 WNW 7 12 1031.8 - - - - - - - - -
29/01:00am 8.8 NNW 9 12 1031.9 - - - - - - - - -
29/12:30am 8.5 NW 7 12 1032.3 - - - - - - - - -
29/12:00am 8.2 WNW 5 8 1032.6 - - - - - - - - -
 
Date/Time
EST
Temp

°C
Wind Pressure Rain
since 9am
mm
Weather Cloud Vis
km
Sea
Height
m
Swell
Dir
 
Speed
knots
Gust
knots
hPa Trend Height
m
Period
s
Dir
28/11:30pm 7.9 WNW 5 7 1032.8 - - - - - - - - -
28/11:00pm 8.3 NW 5 8 1032.5 - - - - - - - - -
28/10:30pm 8.8 NW 6 8 1033.0 - - - - - - - - -
28/10:00pm 8.8 WNW 5 7 1033.0 - - - - - - - - -
28/09:30pm 9.1 NW 6 9 1033.1 - - - - - - - - -
28/09:00pm 9.3 WNW 5 6 1033.2 - - - - - - - - -
28/08:30pm 8.4 WNW 4 5 1033.4 - - - - - - - - -
28/08:00pm 8.8 WNW 3 5 1033.5 - - - - - - - - -
28/07:30pm 9.4 WNW 3 4 1033.6 - - - - - - - - -
28/07:00pm 10.7 NNW 5 6 1033.4 - - - - - - - - -
28/06:30pm 10.9 NW 5 7 1033.3 - - - - - - - - -
28/06:00pm 11.1 WNW 4 9 1033.3 - - - - - - - - -
28/05:30pm 11.1 WNW 2 4 1033.0 - - - - - - - - -
28/05:00pm 11.4 W 4 6 1033.0 - - - - - - - - -
28/04:30pm 11.8 WSW 8 12 1033.1 - - - - - - - - -
28/04:00pm 12.2 WSW 8 11 1033.1 - - - - - - - - -
28/03:30pm 11.8 W 6 9 1033.1 - - - - - - - - -
28/03:00pm 11.9 W 6 8 1033.0 - - - - - - - - -
28/02:30pm 11.0 W 7 11 1033.0 - - - - - - - - -
28/02:00pm 11.7 WNW 8 12 1033.1 - - - - - - - - -
28/01:30pm 10.9 WSW 8 14 1033.5 - - - - - - - - -
28/01:00pm 11.2 WSW 7 11 1033.9 - - - - - - - - -
28/12:30pm 10.7 WNW 8 14 1034.2 - - - - - - - - -
28/12:00pm 10.7 NNW 7 10 1034.7 - - - - - - - - -
28/11:30am 10.0 NNW 7 10 1035.2 - - - - - - - - -
28/11:00am 9.7 NNW 7 10 1035.4 - - - - - - - - -
28/10:30am 9.3 NNW 7 9 1035.1 - - - - - - - - -
28/10:00am 8.7 NW 6 8 1035.0 - - - - - - - - -
28/09:30am 8.4 NW 8 12 1034.8 - - - - - - - - -
28/09:00am 8.0 NW 6 9 1034.8 - - - - - - - - -
28/08:30am 7.5 NW 7 11 1034.8 - - - - - - - - -
28/08:00am 7.1 WNW 4 6 1034.7 - - - - - - - - -
28/07:30am 6.9 WNW 4 7 1034.4 - - - - - - - - -
28/07:00am 7.2 WSW 4 5 1034.0 - - - - - - - - -
28/06:30am 7.2 WNW 5 7 1033.5 - - - - - - - - -
28/06:00am 7.5 WNW 5 7 1033.1 - - - - - - - - -
28/05:30am 7.8 WNW 3 5 1032.8 - - - - - - - - -
28/05:00am 8.6 WNW 4 7 1032.7 - - - - - - - - -
28/04:30am 9.0 WNW 7 10 1032.6 - - - - - - - - -
28/04:00am 9.0 WNW 4 5 1032.6 - - - - - - - - -
28/03:30am 9.3 NW 5 7 1032.8 - - - - - - - - -
28/03:00am 9.6 NW 5 7 1032.9 - - - - - - - - -
28/02:30am 9.4 WNW 5 6 1033.0 - - - - - - - - -
28/02:00am 9.5 WNW 5 7 1032.7 - - - - - - - - -
28/01:30am 10.1 NW 6 8 1032.3 - - - - - - - - -
28/01:00am 10.2 W 3 4 1032.4 - - - - - - - - -
28/12:30am 10.0 WSW 8 14 1032.4 - - - - - - - - -
28/12:00am 10.4 WSW 7 11 1032.3 - - - - - - - - -
 
Date/Time
EST
Temp

°C
Wind Pressure Rain
since 9am
mm
Weather Cloud Vis
km
Sea
Height
m
Swell
Dir
 
Speed
knots
Gust
knots
hPa Trend Height
m
Period
s
Dir
27/11:30pm 10.2 WNW 5 7 1032.1 - - - - - - - - -
27/11:00pm 10.3 WNW 4 6 1032.1 - - - - - - - - -
27/10:30pm 10.5 W 5 8 1032.2 - - - - - - - - -
27/10:00pm 10.6 W 6 9 1032.1 - - - - - - - - -
27/09:30pm 10.5 W 8 12 1032.0 - - - - - - - - -
27/09:00pm 10.3 W 7 9 1031.9 - - - - - - - - -
27/08:30pm 10.5 W 7 10 1031.9 - - - - - - - - -
27/08:00pm 10.7 WSW 8 12 1031.9 - - - - - - - - -
27/07:30pm 11.0 WSW 10 15 1031.8 - - - - - - - - -
27/07:00pm 10.9 WSW 8 12 1031.6 - - - - - - - - -
27/06:30pm 11.1 WSW 10 14 1031.4 - - - - - - - - -
27/06:00pm 11.2 W 8 13 1031.1 - - - - - - - - -
27/05:30pm 11.3 W 10 15 1030.9 - - - - - - - - -
27/05:00pm 11.6 WSW 11 17 1030.6 - - - - - - - - -
27/04:30pm 11.7 W 10 15 1030.4 - - - - - - - - -
27/04:00pm 11.7 WSW 12 18 1030.4 - - - - - - - - -
27/03:30pm 11.8 WSW 13 18 1030.2 - - - - - - - - -
27/03:00pm 11.8 WSW 13 19 1029.8 - - - - - - - - -
27/02:30pm 11.8 WSW 15 20 1029.6 - - - - - - - - -
27/02:00pm 11.5 WSW 12 17 1029.5 - - - - - - - - -
27/01:30pm 11.6 W 15 21 1029.4 - - - - - - - - -
27/01:00pm 12.0 WSW 14 20 1029.4 - - - - - - - - -
27/12:30pm 11.9 WSW 13 20 1029.7 - - - - - - - - -
27/12:00pm 11.7 WSW 15 22 1029.9 - - - - - - - - -
27/11:30am 11.5 WSW 11 17 1030.1 - - - - - - - - -
27/11:00am 10.9 SW 13 20 1030.2 - - - - - - - - -
27/10:30am 10.8 SW 17 25 1029.9 - - - - - - - - -
27/10:00am 10.7 WSW 14 21 1029.6 - - - - - - - - -
27/09:39am 9.8 WSW 15 24 1029.3 - - - - - - - - -
27/09:30am 10.4 WSW 10 14 1029.2 - - - - - - - - -
27/09:00am 9.5 SW 9 16 1028.8 - - - - - - - - -
27/08:30am 9.8 SW 10 15 1028.5 - - - - - - - - -
27/08:00am 10.0 WSW 9 13 1028.0 - - - - - - - - -
27/07:30am 10.2 WSW 10 15 1027.7 - - - - - - - - -
27/07:00am 9.6 W 8 11 1027.4 - - - - - - - - -
27/06:30am 10.1 SW 14 20 1027.1 - - - - - - - - -
27/06:00am 10.1 WSW 11 17 1026.8 - - - - - - - - -
27/05:30am 9.9 WSW 10 16 1026.4 - - - - - - - - -
27/05:00am 9.2 SW 11 19 1026.3 - - - - - - - - -
27/04:47am 9.5 SW 15 26 1026.4 - - - - - - - - -
27/04:30am 10.2 SW 11 17 1026.0 - - - - - - - - -
27/04:00am 10.2 SW 13 19 1025.8 - - - - - - - - -
27/03:30am 10.1 WSW 12 18 1025.5 - - - - - - - - -
27/03:00am 9.5 SW 12 19 1025.6 - - - - - - - - -
27/02:30am 9.8 SW 15 24 1025.4 - - - - - - - - -
27/02:23am 9.9 SW 14 24 1025.2 - - - - - - - - -
27/02:00am 8.9 W 9 13 1025.0 - - - - - - - - -
27/01:30am 8.7 SW 10 17 1025.0 - - - - - - - - -
27/01:00am 8.6 WSW 13 23 1024.8 - - - - - - - - -
27/12:30am 8.5 WSW 9 11 1024.7 - - - - - - - - -
27/12:00am 9.4 WSW 11 15 1024.2 - - - - - - - - -
 
Date/Time
EST
Temp

°C
Wind Pressure Rain
since 9am
mm
Weather Cloud Vis
km
Sea
Height
m
Swell
Dir
 
Speed
knots
Gust
knots
hPa Trend Height
m
Period
s
Dir
26/11:30pm 9.6 SW 11 18 1024.0 - - - - - - - - -
26/11:00pm 9.5 SW 10 17 1023.9 - - - - - - - - -
26/10:30pm 9.1 SW 13 19 1023.7 - - - - - - - - -
26/10:00pm 8.6 SW 11 16 1023.4 - - - - - - - - -
26/09:42pm 8.3 SW 15 26 1023.4 - - - - - - - - -
26/09:30pm 9.6 SW 10 16 1022.9 - - - - - - - - -
26/09:00pm 9.2 SW 13 18 1022.6 - - - - - - - - -
26/08:35pm 9.5 SSW 16 27 1022.3 - - - - - - - - -
26/08:30pm 9.9 SW 12 20 1022.2 - - - - - - - - -
26/08:00pm 9.4 SW 12 20 1021.6 - - - - - - - - -
26/07:30pm 8.2 WSW 12 17 1021.1 - - - - - - - - -
26/07:07pm 9.5 SW 18 30 1020.7 - - - - - - - - -
26/07:00pm 9.7 SW 17 24 1020.6 - - - - - - - - -
26/06:34pm 9.8 WSW 15 27 1020.0 - - - - - - - - -
26/06:30pm 9.6 WSW 12 18 1019.8 - - - - - - - - -
26/06:00pm 8.3 SW 17 27 1019.4 - - - - - - - - -
26/05:30pm 8.4 WSW 18 30 1018.9 - - - - - - - - -
26/05:25pm 9.4 WSW 15 30 1018.9 - - - - - - - - -
26/05:00pm 9.3 WSW 16 24 1018.1 - - - - - - - - -
26/04:50pm 9.7 WSW 16 29 1018.0 - - - - - - - - -
26/04:30pm 8.7 W 11 17 1017.7 - - - - - - - - -
26/04:20pm 8.1 WSW 15 22 1017.7 - - - - - - - - -
26/04:04pm 8.1 SW 21 41 1017.9 - - - - - - - - -
26/04:03pm 8.3 SW 20 41 1017.9 - - - - - - - - -
26/04:01pm 10.0 WSW 17 41 1017.6 - - - - - - - - -
26/04:00pm 10.4 WSW 16 24 1017.4 - - - - - - - - -
26/03:30pm 9.5 WSW 16 23 1017.1 - - - - - - - - -
26/03:00pm 8.3 WSW 22 35 1016.8 - - - - - - - - -
26/02:30pm 10.0 WSW 18 29 1016.1 - - - - - - - - -
26/02:00pm 9.6 SW 25 41 1015.6 - - - - - - - - -
26/01:51pm 9.6 WSW 23 41 1015.5 - - - - - - - - -
26/01:50pm 9.8 WSW 22 38 1015.4 - - - - - - - - -
26/01:37pm 9.0 W 17 30 1014.9 - - - - - - - - -
26/01:30pm 9.1 W 16 25 1014.9 - - - - - - - - -
26/01:00pm 7.9 WSW 21 36 1014.9 - - - - - - - - -
26/12:31pm 10.2 WSW 22 33 1014.4 - - - - - - - - -
26/12:30pm 10.3 WSW 22 31 1014.4 - - - - - - - - -
26/12:00pm 9.7 W 20 31 1014.3 - - - - - - - - -
26/11:30am 9.4 WSW 21 34 1014.5 - - - - - - - - -
26/11:00am 9.2 WSW 23 36 1014.2 - - - - - - - - -
26/10:30am 10.0 WSW 21 31 1013.8 - - - - - - - - -
26/10:00am 9.7 WSW 23 35 1013.2 - - - - - - - - -
26/09:44am 9.8 W 15 30 1013.0 - - - - - - - - -
26/09:30am 8.4 WSW 17 23 1012.8 - - - - - - - - -
26/09:06am 9.3 WSW 20 31 1012.6 - - - - - - - - -
26/09:00am 9.5 WSW 19 28 1012.2 - - - - - - - - -
26/08:30am 9.4 WSW 22 35 1011.3 - - - - - - - - -
26/08:00am 8.2 W 18 30 1010.8 - - - - - - - - -
26/07:31am 8.5 WSW 21 31 1010.6 - - - - - - - - -
26/07:30am 8.5 WSW 22 31 1010.3 - - - - - - - - -
26/07:00am 9.2 WSW 20 31 1009.9 - - - - - - - - -
26/06:32am 8.6 W 16 26 1009.3 - - - - - - - - -
26/06:30am 8.6 W 17 26 1009.2 - - - - - - - - -
26/06:00am 8.0 W 17 27 1008.9 - - - - - - - - -

Other Formats:

Comma delimited format used in spreadsheet applications
http://www.bom.gov.au/fwo/IDV60701/IDV60701.95826.axf

JavaScript Object Notation format (JSON) in row-major order
http://www.bom.gov.au/fwo/IDV60701/IDV60701.95826.json